Hawaii — WDI5794 — position and weather

sailwx.info

Track history (hours):
 
Tides and Currents Weather Stations Pressure Air Temp Water Temp Dewpoint Dewpoint Depression Visibility Wind Speed Wind Dir Waves Ship Positions

Hawaii

Owner: KIRBY OFFSHORE MARINE, LLC, HOUSTON, TX. More information available from US FCC via Universal Licensing System and Coast Guard Vessel Documentation Center.

Last reported at 2018-Apr-30 02:53 UTC. Time now 2018-May-25 09:13 UTC.
Position N 58°17' W 136°20'.
Warning: this ship's position is 25 days out of date.

Length 32 m; draft 5.2 m.

Type: Towing. MMSI: 367578770.

Date/timePositionNaut miles runAvg speedWind from/ knotsBaromVisibWave heightAir tempDewpointWater temp
2018-Apr-30 02:53N 58°17' W 136°20'510.1
2018-Apr-30 02:24N 58°16' W 136°11'411.1
2018-Apr-30 02:00N 58°15' W 136°02'611.4
2018-Apr-30 01:30N 58°18' W 135°52'5 9.5
2018-Apr-30 01:00N 58°18' W 135°43'267 5.6
2018-Apr-28 01:32N 54°33' W 131°22'0 6.8
2018-Apr-28 01:29N 54°33' W 131°22'3 7.3
2018-Apr-28 01:00N 54°30' W 131°18'4 7.7
2018-Apr-28 00:31N 54°27' W 131°14'4 7.1
2018-Apr-28 00:00N 54°24' W 131°10'3 7.1
2018-Apr-27 23:30N 54°22' W 131°07'4 7.0
2018-Apr-27 22:59N 54°19' W 131°03'3 6.6
2018-Apr-27 22:30N 54°16' W 131°01'3 6.6
2018-Apr-27 22:00N 54°12' W 131°01'3 6.3
2018-Apr-27 21:30N 54°09' W 131°00'3 6.6
2018-Apr-27 21:00N 54°06' W 130°60'3 6.6
2018-Apr-27 20:30N 54°03' W 130°59'3 6.6
2018-Apr-27 20:00N 53°59' W 130°58'3 6.6
2018-Apr-27 19:30N 53°56' W 130°57'3 6.9
2018-Apr-27 19:00N 53°53' W 130°55'4 6.7
2018-Apr-27 18:21N 53°49' W 130°52'3 6.7
2018-Apr-27 17:56N 53°46' W 130°50'4 6.4
2018-Apr-27 17:20N 53°43' W 130°47'3 6.2
2018-Apr-27 16:52N 53°40' W 130°46'2 6.1
2018-Apr-27 16:30N 53°38' W 130°46'4 6.2
2018-Apr-27 15:53N 53°34' W 130°46'2 6.2
2018-Apr-27 15:30N 53°32' W 130°46'4 6.2
2018-Apr-27 14:55N 53°28' W 130°46'29 5.0
2018-Apr-27 08:59N 53°03' W 130°20'3 5.9
2018-Apr-27 08:25N 53°01' W 130°16'3 6.2
2018-Apr-27 07:55N 52°58' W 130°13'3 6.5
2018-Apr-27 07:30N 52°56' W 130°11'4 6.8
2018-Apr-27 06:58N 52°53' W 130°07'3 7.1
2018-Apr-27 06:30N 52°50' W 130°04'97 5.2
2018-Apr-26 11:51N 51°14' W 129°54'1 3.8
2018-Apr-26 11:30N 51°13' W 129°54'2 3.7
2018-Apr-26 10:56N 51°11' W 129°52'10 3.3
2018-Apr-26 07:59N 51°02' W 129°45'2 3.2
2018-Apr-26 07:30N 51°00' W 129°45'5 3.4
2018-Apr-26 05:55N 50°55' W 129°43'156 3.6
2018-Apr-24 11:02N 49°00' W 126°59'3 5.5
2018-Apr-24 10:32N 48°58' W 126°56'0 5.3
2018-Apr-24 10:30N 48°58' W 126°56'6 5.5
2018-Apr-24 09:25N 48°55' W 126°49'14 5.7
2018-Apr-24 06:55N 48°45' W 126°33'3 5.6
2018-Apr-24 06:23N 48°43' W 126°30'2 5.2
2018-Apr-24 05:58N 48°42' W 126°27'20 5.0
2018-Apr-24 02:02N 48°29' W 126°04'1 5.9
2018-Apr-24 01:55N 48°29' W 126°03'3 6.2
2018-Apr-24 01:30N 48°29' W 125°59'3 5.9
2018-Apr-24 01:00N 48°29' W 125°55'3 6.3
2018-Apr-24 00:28N 48°29' W 125°50'3 6.8
2018-Apr-24 00:00N 48°29' W 125°45'5 7.3
2018-Apr-23 23:23N 48°29' W 125°38'8 7.4
2018-Apr-23 22:15N 48°29' W 125°25'2 7.6
2018-Apr-23 21:58N 48°29' W 125°22'4 7.9
2018-Apr-23 21:29N 48°30' W 125°16'4 7.6
2018-Apr-23 20:59N 48°30' W 125°11'4 7.8
2018-Apr-23 20:29N 48°30' W 125°05'4 7.9
2018-Apr-23 20:00N 48°30' W 124°59'4 7.6
2018-Apr-23 19:30N 48°30' W 124°53'4 7.3
2018-Apr-23 19:01N 48°30' W 124°48'4 7.2
2018-Apr-23 18:30N 48°30' W 124°42'3 7.0
2018-Apr-23 18:01N 48°29' W 124°38'3 6.9
2018-Apr-23 17:30N 48°28' W 124°33'3 6.7
2018-Apr-23 17:00N 48°26' W 124°28'3 6.5
2018-Apr-23 16:31N 48°25' W 124°24'3 6.4
2018-Apr-23 16:00N 48°24' W 124°19'3 6.5
2018-Apr-23 15:31N 48°23' W 124°15'4 7.4
2018-Apr-23 15:00N 48°21' W 124°09'4 7.4
2018-Apr-23 14:30N 48°20' W 124°04'4 7.3
2018-Apr-23 13:59N 48°19' W 123°59'3 6.8
2018-Apr-23 13:30N 48°18' W 123°54'52 7.3
2018-Apr-23 06:27N 48°06' W 122°39'2 5.4
2018-Apr-23 06:00N 48°03' W 122°38'3 5.4
2018-Apr-23 05:26N 48°00' W 122°36'2 4.8
2018-Apr-23 05:00N 47°59' W 122°35'2 4.7
2018-Apr-23 04:30N 47°57' W 122°32'3 5.4
2018-Apr-23 04:01N 47°56' W 122°29'3 5.2
2018-Apr-23 03:30N 47°53' W 122°28'3 5.7
2018-Apr-23 03:01N 47°50' W 122°27'3 5.9
2018-Apr-23 02:31N 47°47' W 122°26'3 5.9
2018-Apr-23 02:01N 47°44' W 122°26'3 6.1
2018-Apr-23 01:30N 47°41' W 122°27'3 5.3
2018-Apr-23 01:01N 47°39' W 122°27'2 4.0
2018-Apr-23 00:31N 47°37' W 122°25'2 3.6
2018-Apr-23 00:01N 47°36' W 122°23'1 2.8
2018-Apr-22 23:30N 47°36' W 122°21'0 0.7
2018-Apr-22 23:00N 47°35' W 122°21'0 0.0
2018-Apr-22 22:30N 47°35' W 122°21'0 0.0
2018-Apr-22 21:59N 47°35' W 122°21'0 0.0
2018-Apr-22 21:29N 47°35' W 122°21'0 0.0
2018-Apr-22 20:59N 47°35' W 122°21'0 0.0
2018-Apr-22 20:29N 47°35' W 122°21'0 0.0
2018-Apr-22 19:59N 47°35' W 122°21'0 0.0
2018-Apr-22 19:29N 47°35' W 122°21'0 0.0
2018-Apr-22 18:59N 47°35' W 122°21'0 0.0
2018-Apr-22 18:29N 47°35' W 122°21'1 1.3
2018-Apr-22 17:58N 47°36' W 122°22'0 0.1
2018-Apr-22 17:30N 47°36' W 122°22'0 0.5
2018-Apr-22 17:00N 47°35' W 122°22'1 1.1
2018-Apr-22 16:30N 47°36' W 122°21'0 0.4
2018-Apr-22 16:00N 47°35' W 122°21'0 0.0
2018-Apr-22 15:30N 47°35' W 122°21'0 0.0
2018-Apr-22 15:00N 47°35' W 122°21'0 0.0
2018-Apr-22 14:30N 47°35' W 122°21'0 0.0
2018-Apr-22 14:00N 47°35' W 122°21'0 0.0
2018-Apr-22 13:30N 47°35' W 122°21'0 0.0
2018-Apr-22 13:00N 47°35' W 122°21'0 0.0
2018-Apr-22 12:30N 47°35' W 122°21'0 0.0
2018-Apr-22 12:00N 47°35' W 122°21'0 0.0
2018-Apr-22 11:30N 47°35' W 122°21'0 0.0
2018-Apr-22 11:00N 47°35' W 122°21'0 0.0
2018-Apr-22 10:30N 47°35' W 122°21'0 0.0
2018-Apr-22 10:00N 47°35' W 122°21'0 0.0
2018-Apr-22 09:30N 47°35' W 122°21'0 0.0
2018-Apr-22 09:00N 47°35' W 122°21'0 0.0
2018-Apr-22 08:30N 47°35' W 122°21'0 0.0
2018-Apr-22 08:00N 47°35' W 122°21'0 0.0
2018-Apr-22 07:30N 47°35' W 122°21'0 0.0
2018-Apr-22 07:00N 47°35' W 122°21'0 0.0
2018-Apr-22 06:30N 47°35' W 122°21'0 0.0
2018-Apr-22 06:00N 47°35' W 122°21'0 0.0
2018-Apr-22 05:30N 47°35' W 122°21'0 0.0
2018-Apr-22 05:00N 47°35' W 122°21'0 0.0
2018-Apr-22 04:30N 47°35' W 122°21'0 0.0
2018-Apr-22 04:00N 47°35' W 122°21'0 0.0
2018-Apr-22 03:30N 47°35' W 122°21'0 0.0
2018-Apr-22 03:00N 47°35' W 122°21'0 0.0
2018-Apr-22 02:30N 47°35' W 122°21'0 0.0
2018-Apr-22 02:00N 47°35' W 122°21'0 0.0
2018-Apr-22 01:29N 47°35' W 122°21'0 0.0
2018-Apr-22 00:59N 47°35' W 122°21'0 0.0
2018-Apr-22 00:30N 47°35' W 122°21'0 0.0
2018-Apr-21 23:59N 47°35' W 122°21'0 0.0
2018-Apr-21 23:30N 47°35' W 122°21'0 0.0
2018-Apr-21 22:59N 47°35' W 122°21'0 0.0
2018-Apr-21 22:29N 47°35' W 122°21'0 0.0
2018-Apr-21 22:00N 47°35' W 122°21'0 0.0
2018-Apr-21 21:30N 47°35' W 122°21'0 0.3
2018-Apr-21 20:57N 47°35' W 122°21'0 0.0
2018-Apr-21 20:30N 47°35' W 122°21'0 0.0
2018-Apr-21 20:00N 47°35' W 122°21'0 0.0
2018-Apr-21 19:30N 47°35' W 122°21'0 0.0
2018-Apr-21 19:00N 47°35' W 122°21'0 0.0
2018-Apr-21 18:30N 47°35' W 122°21'0 0.0
2018-Apr-21 18:00N 47°35' W 122°21'0 0.0
2018-Apr-21 17:27N 47°35' W 122°21'0 0.0
2018-Apr-21 17:00N 47°35' W 122°21'0 0.0
2018-Apr-21 16:30N 47°35' W 122°21'0 0.0
2018-Apr-21 16:00N 47°35' W 122°21'0 0.0
2018-Apr-21 15:30N 47°35' W 122°21'0 0.3
2018-Apr-21 14:58N 47°35' W 122°21'0 0.0
2018-Apr-21 14:28N 47°35' W 122°21'0 0.0
2018-Apr-21 13:55N 47°35' W 122°21'0 0.0
2018-Apr-21 13:28N 47°35' W 122°21'0 0.0
2018-Apr-21 12:58N 47°35' W 122°21'0 0.0
2018-Apr-21 12:25N 47°35' W 122°21'0 0.0
2018-Apr-21 11:58N 47°35' W 122°21'0 0.0
2018-Apr-21 11:28N 47°35' W 122°21'0 0.0
2018-Apr-21 10:58N 47°35' W 122°21'0 0.0
2018-Apr-21 10:28N 47°35' W 122°21'0 0.0
2018-Apr-21 09:58N 47°35' W 122°21'0 0.0
2018-Apr-21 09:28N 47°35' W 122°21'0 0.0
2018-Apr-21 08:58N 47°35' W 122°21'0 0.0
2018-Apr-21 08:28N 47°35' W 122°21'0 0.0
2018-Apr-21 07:58N 47°35' W 122°21'0 0.0
2018-Apr-21 07:28N 47°35' W 122°21'0 0.0
2018-Apr-21 06:55N 47°35' W 122°21'0 0.0
2018-Apr-21 06:28N 47°35' W 122°21'0 0.0
2018-Apr-21 05:58N 47°35' W 122°21'0 0.0
2018-Apr-21 05:28N 47°35' W 122°21'0 0.0
2018-Apr-21 04:58N 47°35' W 122°21'0 0.0
2018-Apr-21 04:28N 47°35' W 122°21'0 0.0
2018-Apr-21 03:58N 47°35' W 122°21'0 0.0
2018-Apr-21 03:28N 47°35' W 122°21'0 0.0
2018-Apr-21 02:58N 47°35' W 122°21'0 0.0
2018-Apr-21 02:28N 47°35' W 122°21'0 0.0
2018-Apr-21 01:58N 47°35' W 122°21'0 0.0
2018-Apr-21 01:28N 47°35' W 122°21'0 0.0
2018-Apr-21 00:58N 47°35' W 122°21'0 0.0
2018-Apr-21 00:28N 47°35' W 122°21'0 0.0
2018-Apr-20 23:58N 47°35' W 122°21'0 0.0
2018-Apr-20 23:28N 47°35' W 122°21'0 0.0
2018-Apr-20 22:58N 47°35' W 122°21'0 0.0
2018-Apr-20 22:28N 47°35' W 122°21'0 0.0
2018-Apr-20 21:58N 47°35' W 122°21'0 0.0
2018-Apr-20 21:28N 47°35' W 122°21'0 0.0
2018-Apr-20 20:58N 47°35' W 122°21'0 0.0
2018-Apr-20 20:28N 47°35' W 122°21'0 0.0
2018-Apr-20 19:58N 47°35' W 122°21'0 0.0
2018-Apr-20 19:28N 47°35' W 122°21'0 0.1
2018-Apr-20 18:59N 47°35' W 122°21'1 1.3
2018-Apr-20 18:29N 47°35' W 122°22'0 0.0
2018-Apr-20 17:59N 47°35' W 122°22'0 0.0
2018-Apr-20 17:29N 47°35' W 122°22'0 0.0
2018-Apr-20 16:59N 47°35' W 122°22'0 0.0
2018-Apr-20 16:29N 47°35' W 122°22'0 0.0
2018-Apr-20 15:59N 47°35' W 122°22'0 0.0
2018-Apr-20 15:29N 47°35' W 122°22'0 0.0
2018-Apr-20 14:59N 47°35' W 122°22'0 0.0
2018-Apr-20 14:29N 47°35' W 122°22'1 1.4
2018-Apr-20 14:00N 47°35' W 122°21'0 0.0
2018-Apr-20 13:30N 47°35' W 122°21'0 0.0
2018-Apr-20 13:00N 47°35' W 122°21'0 0.0
2018-Apr-20 12:30N 47°35' W 122°21'0 0.0
2018-Apr-20 11:54N 47°35' W 122°21'0 0.0
2018-Apr-20 11:30N 47°35' W 122°21'0 0.0
2018-Apr-20 11:00N 47°35' W 122°21'0 0.0
2018-Apr-20 10:30N 47°35' W 122°21'0 0.0
2018-Apr-20 10:00N 47°35' W 122°21'0 0.0
2018-Apr-20 09:30N 47°35' W 122°21'0 0.0
2018-Apr-20 09:00N 47°35' W 122°21'0 0.0
2018-Apr-20 08:30N 47°35' W 122°21'0 0.0
2018-Apr-20 08:00N 47°35' W 122°21'0 0.0
2018-Apr-20 07:30N 47°35' W 122°21'0 0.0
2018-Apr-20 07:00N 47°35' W 122°21'0 0.0
2018-Apr-20 06:30N 47°35' W 122°21'0 0.0
2018-Apr-20 05:57N 47°35' W 122°21'0 0.0
2018-Apr-20 05:30N 47°35' W 122°21'0 0.0
2018-Apr-20 05:00N 47°35' W 122°21'0 0.0
2018-Apr-20 04:30N 47°35' W 122°21'0 0.0
2018-Apr-20 04:00N 47°35' W 122°21'0 0.0
2018-Apr-20 03:30N 47°35' W 122°21'0 0.0
2018-Apr-20 02:57N 47°35' W 122°21'  
Track history (hours):
 
Tides and Currents Weather Stations Pressure Air Temp Water Temp Dewpoint Dewpoint Depression Visibility Wind Speed Wind Dir Waves Ship Positions

Hawaii

Owner: KIRBY OFFSHORE MARINE, LLC, HOUSTON, TX. More information available from US FCC via Universal Licensing System and Coast Guard Vessel Documentation Center.

Last reported at 2018-Apr-30 02:53 UTC. Time now 2018-May-25 09:13 UTC.
Position N 58°17' W 136°20'.
Warning: this ship's position is 25 days out of date.

Length 32 m; draft 5.2 m.

Type: Towing. MMSI: 367578770.

Date/timePositionNaut miles runAvg speedWind from/ knotsBaromVisibWave heightAir tempDewpointWater temp
2018-Apr-30 02:53N 58°17' W 136°20'510.1
2018-Apr-30 02:24N 58°16' W 136°11'411.1
2018-Apr-30 02:00N 58°15' W 136°02'611.4
2018-Apr-30 01:30N 58°18' W 135°52'5 9.5
2018-Apr-30 01:00N 58°18' W 135°43'267 5.6
2018-Apr-28 01:32N 54°33' W 131°22'0 6.8
2018-Apr-28 01:29N 54°33' W 131°22'3 7.3
2018-Apr-28 01:00N 54°30' W 131°18'4 7.7
2018-Apr-28 00:31N 54°27' W 131°14'4 7.1
2018-Apr-28 00:00N 54°24' W 131°10'3 7.1
2018-Apr-27 23:30N 54°22' W 131°07'4 7.0
2018-Apr-27 22:59N 54°19' W 131°03'3 6.6
2018-Apr-27 22:30N 54°16' W 131°01'3 6.6
2018-Apr-27 22:00N 54°12' W 131°01'3 6.3
2018-Apr-27 21:30N 54°09' W 131°00'3 6.6
2018-Apr-27 21:00N 54°06' W 130°60'3 6.6
2018-Apr-27 20:30N 54°03' W 130°59'3 6.6
2018-Apr-27 20:00N 53°59' W 130°58'3 6.6
2018-Apr-27 19:30N 53°56' W 130°57'3 6.9
2018-Apr-27 19:00N 53°53' W 130°55'4 6.7
2018-Apr-27 18:21N 53°49' W 130°52'3 6.7
2018-Apr-27 17:56N 53°46' W 130°50'4 6.4
2018-Apr-27 17:20N 53°43' W 130°47'3 6.2
2018-Apr-27 16:52N 53°40' W 130°46'2 6.1
2018-Apr-27 16:30N 53°38' W 130°46'4 6.2
2018-Apr-27 15:53N 53°34' W 130°46'2 6.2
2018-Apr-27 15:30N 53°32' W 130°46'4 6.2
2018-Apr-27 14:55N 53°28' W 130°46'29 5.0
2018-Apr-27 08:59N 53°03' W 130°20'3 5.9
2018-Apr-27 08:25N 53°01' W 130°16'3 6.2
2018-Apr-27 07:55N 52°58' W 130°13'3 6.5
2018-Apr-27 07:30N 52°56' W 130°11'4 6.8
2018-Apr-27 06:58N 52°53' W 130°07'3 7.1
2018-Apr-27 06:30N 52°50' W 130°04'97 5.2
2018-Apr-26 11:51N 51°14' W 129°54'1 3.8
2018-Apr-26 11:30N 51°13' W 129°54'2 3.7
2018-Apr-26 10:56N 51°11' W 129°52'10 3.3
2018-Apr-26 07:59N 51°02' W 129°45'2 3.2
2018-Apr-26 07:30N 51°00' W 129°45'5 3.4
2018-Apr-26 05:55N 50°55' W 129°43'156 3.6
2018-Apr-24 11:02N 49°00' W 126°59'3 5.5
2018-Apr-24 10:32N 48°58' W 126°56'0 5.3
2018-Apr-24 10:30N 48°58' W 126°56'6 5.5
2018-Apr-24 09:25N 48°55' W 126°49'14 5.7
2018-Apr-24 06:55N 48°45' W 126°33'3 5.6
2018-Apr-24 06:23N 48°43' W 126°30'2 5.2
2018-Apr-24 05:58N 48°42' W 126°27'20 5.0
2018-Apr-24 02:02N 48°29' W 126°04'1 5.9
2018-Apr-24 01:55N 48°29' W 126°03'3 6.2
2018-Apr-24 01:30N 48°29' W 125°59'3 5.9
2018-Apr-24 01:00N 48°29' W 125°55'3 6.3
2018-Apr-24 00:28N 48°29' W 125°50'3 6.8
2018-Apr-24 00:00N 48°29' W 125°45'5 7.3
2018-Apr-23 23:23N 48°29' W 125°38'8 7.4
2018-Apr-23 22:15N 48°29' W 125°25'2 7.6
2018-Apr-23 21:58N 48°29' W 125°22'4 7.9
2018-Apr-23 21:29N 48°30' W 125°16'4 7.6
2018-Apr-23 20:59N 48°30' W 125°11'4 7.8
2018-Apr-23 20:29N 48°30' W 125°05'4 7.9
2018-Apr-23 20:00N 48°30' W 124°59'4 7.6
2018-Apr-23 19:30N 48°30' W 124°53'4 7.3
2018-Apr-23 19:01N 48°30' W 124°48'4 7.2
2018-Apr-23 18:30N 48°30' W 124°42'3 7.0
2018-Apr-23 18:01N 48°29' W 124°38'3 6.9
2018-Apr-23 17:30N 48°28' W 124°33'3 6.7
2018-Apr-23 17:00N 48°26' W 124°28'3 6.5
2018-Apr-23 16:31N 48°25' W 124°24'3 6.4
2018-Apr-23 16:00N 48°24' W 124°19'3 6.5
2018-Apr-23 15:31N 48°23' W 124°15'4 7.4
2018-Apr-23 15:00N 48°21' W 124°09'4 7.4
2018-Apr-23 14:30N 48°20' W 124°04'4 7.3
2018-Apr-23 13:59N 48°19' W 123°59'3 6.8
2018-Apr-23 13:30N 48°18' W 123°54'52 7.3
2018-Apr-23 06:27N 48°06' W 122°39'2 5.4
2018-Apr-23 06:00N 48°03' W 122°38'3 5.4
2018-Apr-23 05:26N 48°00' W 122°36'2 4.8
2018-Apr-23 05:00N 47°59' W 122°35'2 4.7
2018-Apr-23 04:30N 47°57' W 122°32'3 5.4
2018-Apr-23 04:01N 47°56' W 122°29'3 5.2
2018-Apr-23 03:30N 47°53' W 122°28'3 5.7
2018-Apr-23 03:01N 47°50' W 122°27'3 5.9
2018-Apr-23 02:31N 47°47' W 122°26'3 5.9
2018-Apr-23 02:01N 47°44' W 122°26'3 6.1
2018-Apr-23 01:30N 47°41' W 122°27'3 5.3
2018-Apr-23 01:01N 47°39' W 122°27'2 4.0
2018-Apr-23 00:31N 47°37' W 122°25'2 3.6
2018-Apr-23 00:01N 47°36' W 122°23'1 2.8
2018-Apr-22 23:30N 47°36' W 122°21'0 0.7
2018-Apr-22 23:00N 47°35' W 122°21'0 0.0
2018-Apr-22 22:30N 47°35' W 122°21'0 0.0
2018-Apr-22 21:59N 47°35' W 122°21'0 0.0
2018-Apr-22 21:29N 47°35' W 122°21'0 0.0
2018-Apr-22 20:59N 47°35' W 122°21'0 0.0
2018-Apr-22 20:29N 47°35' W 122°21'0 0.0
2018-Apr-22 19:59N 47°35' W 122°21'0 0.0
2018-Apr-22 19:29N 47°35' W 122°21'0 0.0
2018-Apr-22 18:59N 47°35' W 122°21'0 0.0
2018-Apr-22 18:29N 47°35' W 122°21'1 1.3
2018-Apr-22 17:58N 47°36' W 122°22'0 0.1
2018-Apr-22 17:30N 47°36' W 122°22'0 0.5
2018-Apr-22 17:00N 47°35' W 122°22'1 1.1
2018-Apr-22 16:30N 47°36' W 122°21'0 0.4
2018-Apr-22 16:00N 47°35' W 122°21'0 0.0
2018-Apr-22 15:30N 47°35' W 122°21'0 0.0
2018-Apr-22 15:00N 47°35' W 122°21'0 0.0
2018-Apr-22 14:30N 47°35' W 122°21'0 0.0
2018-Apr-22 14:00N 47°35' W 122°21'0 0.0
2018-Apr-22 13:30N 47°35' W 122°21'0 0.0
2018-Apr-22 13:00N 47°35' W 122°21'0 0.0
2018-Apr-22 12:30N 47°35' W 122°21'0 0.0
2018-Apr-22 12:00N 47°35' W 122°21'0 0.0
2018-Apr-22 11:30N 47°35' W 122°21'0 0.0
2018-Apr-22 11:00N 47°35' W 122°21'0 0.0
2018-Apr-22 10:30N 47°35' W 122°21'0 0.0
2018-Apr-22 10:00N 47°35' W 122°21'0 0.0
2018-Apr-22 09:30N 47°35' W 122°21'0 0.0
2018-Apr-22 09:00N 47°35' W 122°21'0 0.0
2018-Apr-22 08:30N 47°35' W 122°21'0 0.0
2018-Apr-22 08:00N 47°35' W 122°21'0 0.0
2018-Apr-22 07:30N 47°35' W 122°21'0 0.0
2018-Apr-22 07:00N 47°35' W 122°21'0 0.0
2018-Apr-22 06:30N 47°35' W 122°21'0 0.0
2018-Apr-22 06:00N 47°35' W 122°21'0 0.0
2018-Apr-22 05:30N 47°35' W 122°21'0 0.0
2018-Apr-22 05:00N 47°35' W 122°21'0 0.0
2018-Apr-22 04:30N 47°35' W 122°21'0 0.0
2018-Apr-22 04:00N 47°35' W 122°21'0 0.0
2018-Apr-22 03:30N 47°35' W 122°21'0 0.0
2018-Apr-22 03:00N 47°35' W 122°21'0 0.0
2018-Apr-22 02:30N 47°35' W 122°21'0 0.0
2018-Apr-22 02:00N 47°35' W 122°21'0 0.0
2018-Apr-22 01:29N 47°35' W 122°21'0 0.0
2018-Apr-22 00:59N 47°35' W 122°21'0 0.0
2018-Apr-22 00:30N 47°35' W 122°21'0 0.0
2018-Apr-21 23:59N 47°35' W 122°21'0 0.0
2018-Apr-21 23:30N 47°35' W 122°21'0 0.0
2018-Apr-21 22:59N 47°35' W 122°21'0 0.0
2018-Apr-21 22:29N 47°35' W 122°21'0 0.0
2018-Apr-21 22:00N 47°35' W 122°21'0 0.0
2018-Apr-21 21:30N 47°35' W 122°21'0 0.3
2018-Apr-21 20:57N 47°35' W 122°21'0 0.0
2018-Apr-21 20:30N 47°35' W 122°21'0 0.0
2018-Apr-21 20:00N 47°35' W 122°21'0 0.0
2018-Apr-21 19:30N 47°35' W 122°21'0 0.0
2018-Apr-21 19:00N 47°35' W 122°21'0 0.0
2018-Apr-21 18:30N 47°35' W 122°21'0 0.0
2018-Apr-21 18:00N 47°35' W 122°21'0 0.0
2018-Apr-21 17:27N 47°35' W 122°21'0 0.0
2018-Apr-21 17:00N 47°35' W 122°21'0 0.0
2018-Apr-21 16:30N 47°35' W 122°21'0 0.0
2018-Apr-21 16:00N 47°35' W 122°21'0 0.0
2018-Apr-21 15:30N 47°35' W 122°21'0 0.3
2018-Apr-21 14:58N 47°35' W 122°21'0 0.0
2018-Apr-21 14:28N 47°35' W 122°21'0 0.0
2018-Apr-21 13:55N 47°35' W 122°21'0 0.0
2018-Apr-21 13:28N 47°35' W 122°21'0 0.0
2018-Apr-21 12:58N 47°35' W 122°21'0 0.0
2018-Apr-21 12:25N 47°35' W 122°21'0 0.0
2018-Apr-21 11:58N 47°35' W 122°21'0 0.0
2018-Apr-21 11:28N 47°35' W 122°21'0 0.0
2018-Apr-21 10:58N 47°35' W 122°21'0 0.0
2018-Apr-21 10:28N 47°35' W 122°21'0 0.0
2018-Apr-21 09:58N 47°35' W 122°21'0 0.0
2018-Apr-21 09:28N 47°35' W 122°21'0 0.0
2018-Apr-21 08:58N 47°35' W 122°21'0 0.0
2018-Apr-21 08:28N 47°35' W 122°21'0 0.0
2018-Apr-21 07:58N 47°35' W 122°21'0 0.0
2018-Apr-21 07:28N 47°35' W 122°21'0 0.0
2018-Apr-21 06:55N 47°35' W 122°21'0 0.0
2018-Apr-21 06:28N 47°35' W 122°21'0 0.0
2018-Apr-21 05:58N 47°35' W 122°21'0 0.0
2018-Apr-21 05:28N 47°35' W 122°21'0 0.0
2018-Apr-21 04:58N 47°35' W 122°21'0 0.0
2018-Apr-21 04:28N 47°35' W 122°21'0 0.0
2018-Apr-21 03:58N 47°35' W 122°21'0 0.0
2018-Apr-21 03:28N 47°35' W 122°21'0 0.0
2018-Apr-21 02:58N 47°35' W 122°21'0 0.0
2018-Apr-21 02:28N 47°35' W 122°21'0 0.0
2018-Apr-21 01:58N 47°35' W 122°21'0 0.0
2018-Apr-21 01:28N 47°35' W 122°21'0 0.0
2018-Apr-21 00:58N 47°35' W 122°21'0 0.0
2018-Apr-21 00:28N 47°35' W 122°21'0 0.0
2018-Apr-20 23:58N 47°35' W 122°21'0 0.0
2018-Apr-20 23:28N 47°35' W 122°21'0 0.0
2018-Apr-20 22:58N 47°35' W 122°21'0 0.0
2018-Apr-20 22:28N 47°35' W 122°21'0 0.0
2018-Apr-20 21:58N 47°35' W 122°21'0 0.0
2018-Apr-20 21:28N 47°35' W 122°21'0 0.0
2018-Apr-20 20:58N 47°35' W 122°21'0 0.0
2018-Apr-20 20:28N 47°35' W 122°21'0 0.0
2018-Apr-20 19:58N 47°35' W 122°21'0 0.0
2018-Apr-20 19:28N 47°35' W 122°21'0 0.1
2018-Apr-20 18:59N 47°35' W 122°21'1 1.3
2018-Apr-20 18:29N 47°35' W 122°22'0 0.0
2018-Apr-20 17:59N 47°35' W 122°22'0 0.0
2018-Apr-20 17:29N 47°35' W 122°22'0 0.0
2018-Apr-20 16:59N 47°35' W 122°22'0 0.0
2018-Apr-20 16:29N 47°35' W 122°22'0 0.0
2018-Apr-20 15:59N 47°35' W 122°22'0 0.0
2018-Apr-20 15:29N 47°35' W 122°22'0 0.0
2018-Apr-20 14:59N 47°35' W 122°22'0 0.0
2018-Apr-20 14:29N 47°35' W 122°22'1 1.4
2018-Apr-20 14:00N 47°35' W 122°21'0 0.0
2018-Apr-20 13:30N 47°35' W 122°21'0 0.0
2018-Apr-20 13:00N 47°35' W 122°21'0 0.0
2018-Apr-20 12:30N 47°35' W 122°21'0 0.0
2018-Apr-20 11:54N 47°35' W 122°21'0 0.0
2018-Apr-20 11:30N 47°35' W 122°21'0 0.0
2018-Apr-20 11:00N 47°35' W 122°21'0 0.0
2018-Apr-20 10:30N 47°35' W 122°21'0 0.0
2018-Apr-20 10:00N 47°35' W 122°21'0 0.0
2018-Apr-20 09:30N 47°35' W 122°21'0 0.0
2018-Apr-20 09:00N 47°35' W 122°21'0 0.0
2018-Apr-20 08:30N 47°35' W 122°21'0 0.0
2018-Apr-20 08:00N 47°35' W 122°21'0 0.0
2018-Apr-20 07:30N 47°35' W 122°21'0 0.0
2018-Apr-20 07:00N 47°35' W 122°21'0 0.0
2018-Apr-20 06:30N 47°35' W 122°21'0 0.0
2018-Apr-20 05:57N 47°35' W 122°21'0 0.0
2018-Apr-20 05:30N 47°35' W 122°21'0 0.0
2018-Apr-20 05:00N 47°35' W 122°21'0 0.0
2018-Apr-20 04:30N 47°35' W 122°21'0 0.0
2018-Apr-20 04:00N 47°35' W 122°21'0 0.0
2018-Apr-20 03:30N 47°35' W 122°21'0 0.0
2018-Apr-20 02:57N 47°35' W 122°21'  

Dump ship's entire track history